Winner, South Dakota
Current Conditions -  °F | °C
As of 8:00 PM on Thursday 18 Dec 2014 (Local Time) from KICR Reporting Station
Few Clouds Few Clouds  
Wind Chill: 16°   Ceiling: Unl
Heat Index: 26°   Visibility: 7mi
Dew Point: 22°   Wind: 12mph
Humidity: 84%   Direction: 190°S
Pressure: 30.08"   Gusts: NA
Location:  43.38°N, 99.86°W
Report Text: KICR 190200Z AUTO 19010KT 7SM FEW006 M03/M06 A3008 RMK AO2 T10331056
Loading
Personal Weather Stations






























Interactive Weather Map New forecast layout! Learn more

10-Day Weather Forecast

Advertisements
Track Severe Weather on mobile